Mehama, Oregon
Current Conditions -  °F | °C
As of 6:19 AM on Thursday 30 Oct 2014 (Local Time) from KSLE Reporting Station
Light Rain Light Rain  
Wind Chill: 56°   Ceiling: 7000
Heat Index: 56°   Visibility: 5mi
Dew Point: 54°   Wind: 3mph
Humidity: 93%   Direction: 240°WSW
Pressure: 29.88"   Gusts: NA
Location:  44.79°N, 122.62°W
Report Text: KSLE 301319Z AUTO 24003KT 5SM -RA BR FEW004 BKN070 OVC095 13/12 A2988 RMK AO2 RAB05 P0001 T01330122
Loading
Personal Weather Stations






























Interactive Weather Map New forecast layout! Learn more

10-Day Weather Forecast

Advertisements
Track Severe Weather on mobile